KIMM

Immokalee Regional Airport

Immokalee, Florida, USA
METAR KIMM 140435Z AUTO 00000KT 10SM SCT038 BKN045 22/21 A3006 RMK A01
Observed Flight Rules
Nov-14 @ 04:35 UTC (15 minutes ago) Visual Flight Rules
Visibility Clouds
10 miles
  • Scattered at 3,800' AGL
  • Broken at 4,500' AGL
Temperatures Readings
Current 22°C / 72°F
Dewpoint 21°C / 70°F
Humidity 94%
Altimeter 30.06" Hg
Pressure 1018 hPa
Elevation 12
METAR KIMM 140435Z AUTO 00000KT 10SM SCT038 BKN045 22/21 A3006 RMK A01
Observed Flight Rules
Nov-14 @ 04:35 UTC
(15 minutes ago)
VFR
Clouds
  • Scattered at 3,800' AGL
  • Broken at 4,500' AGL
Temperature Dewpoint
22°C / 72°F 21°C / 70°F
Humidity Altimeter Pressure
94% 30.06" Hg 1018 hPa